Terminal Aerodrome Forecast
Issued by NWS

Home | Current Version | Previous Version | Text Only | Print | Product List | Glossary On
Versions: 1 2 3 4 5 6 7 8 9 10 11 12 13 14 15 16 17 18 19 20 21 22 23
000
FTUS46 KSEW 222100 AAB
TAFBLI
TAF AMD
KBLI 222100Z 2221/2318 17009KT P6SM SCT022 OVC040
      TEMPO 2221/2224 -RA BKN022 OVC040
     FM230000 17013KT P6SM -RA BKN022 OVC040
      TEMPO 2300/2304 4SM RA BR OVC015
     FM230600 17010KT P6SM -SHRA BKN028 OVC050
     FM231500 17007KT P6SM -SHRA BKN035 OVC050=

USA.gov is the U.S. government's official web portal to all federal, state and local government web resources and services.